createdAt,value
2019-05-02T00:00:31.286Z,64.35
2019-05-02T00:02:59.938Z,62.10
2019-05-02T00:05:32.027Z,62.57
2019-05-02T00:08:00.323Z,61.03
2019-05-02T00:10:29.056Z,62.30
2019-05-02T00:12:57.547Z,63.77
2019-05-02T00:15:26.119Z,69.47
2019-05-02T00:17:56.761Z,68.10
2019-05-02T00:20:25.981Z,70.43
2019-05-02T00:22:54.849Z,71.77
2019-05-02T00:25:23.283Z,70.07
2019-05-02T00:27:51.693Z,65.37
2019-05-02T00:30:20.665Z,70.67
2019-05-02T00:32:53.095Z,65.75
2019-05-02T00:35:20.261Z,71.53
2019-05-02T00:37:48.808Z,67.73
2019-05-02T00:40:20.292Z,69.17
2019-05-02T00:42:47.413Z,69.87
2019-05-02T00:45:18.745Z,70.40
2019-05-02T00:47:50.081Z,64.53
2019-05-02T00:50:18.787Z,66.30
2019-05-02T00:52:47.226Z,68.03
2019-05-02T00:55:15.638Z,61.37
2019-05-02T00:57:44.064Z,62.57
2019-05-02T01:00:13.265Z,62.73
2019-05-02T01:02:47.374Z,61.00
2019-05-02T01:05:15.819Z,61.33
2019-05-02T01:07:44.282Z,59.37
2019-05-02T01:10:17.268Z,60.80
2019-05-02T01:12:46.080Z,59.90
2019-05-02T01:15:14.703Z,58.67
2019-05-02T01:17:43.086Z,59.33
2019-05-02T01:20:11.838Z,59.77
2019-05-02T01:22:40.319Z,58.87
2019-05-02T01:25:15.367Z,58.77
2019-05-02T01:27:42.447Z,60.17
2019-05-02T01:30:18.999Z,63.57
2019-05-02T01:33:01.276Z,60.70
2019-05-02T01:35:31.636Z,64.07
2019-05-02T01:38:18.099Z,65.00
2019-05-02T01:40:53.088Z,64.07
2019-05-02T01:43:26.811Z,68.53
2019-05-02T01:45:55.311Z,58.73
2019-05-02T01:48:24.075Z,50.80
2019-05-02T01:50:52.668Z,49.07
2019-05-02T01:53:21.170Z,52.47
2019-05-02T01:55:51.901Z,51.68
2019-05-02T01:58:22.830Z,57.10
2019-05-02T02:00:50.952Z,55.70
2019-05-02T02:03:19.379Z,56.27
2019-05-02T02:05:47.981Z,63.10
2019-05-02T02:08:16.488Z,58.10
2019-05-02T02:10:44.909Z,63.97
2019-05-02T02:13:13.386Z,62.50
2019-05-02T02:15:41.847Z,61.20
2019-05-02T02:18:10.607Z,58.80
2019-05-02T02:20:55.147Z,63.87
2019-05-02T02:23:37.024Z,61.37
2019-05-02T02:26:12.031Z,60.00
2019-05-02T02:28:40.616Z,64.83
2019-05-02T02:31:09.154Z,60.77
2019-05-02T02:33:40.983Z,61.97
2019-05-02T02:36:07.779Z,63.45
2019-05-02T02:38:36.185Z,65.65
2019-05-02T02:41:06.381Z,66.03
2019-05-02T02:43:35.152Z,53.60
2019-05-02T02:46:08.332Z,57.87
2019-05-02T02:48:40.594Z,55.65
2019-05-02T02:51:07.431Z,53.67
2019-05-02T02:53:35.884Z,54.70
2019-05-02T02:56:06.715Z,52.27
2019-05-02T02:58:44.174Z,56.70
2019-05-02T03:01:05.810Z,58.00
2019-05-02T03:03:35.267Z,56.48
2019-05-02T03:06:07.741Z,58.37
2019-05-02T03:08:45.118Z,58.40
2019-05-02T03:11:05.025Z,61.90
2019-05-02T03:13:52.409Z,59.97
2019-05-02T03:16:21.299Z,62.90
2019-05-02T03:18:49.753Z,66.20
2019-05-02T03:21:20.489Z,70.57
2019-05-02T03:23:48.321Z,64.40
2019-05-02T03:26:17.331Z,68.20
2019-05-02T03:28:57.141Z,73.90
2019-05-02T03:31:29.120Z,66.83
2019-05-02T03:33:54.717Z,72.13
2019-05-02T03:36:29.685Z,66.47
2019-05-02T03:38:47.295Z,62.00
2019-05-02T03:41:20.835Z,64.30
2019-05-02T03:43:46.108Z,65.10
2019-05-02T03:46:20.662Z,67.00
2019-05-02T03:48:44.837Z,71.53
2019-05-02T03:51:21.786Z,68.43
2019-05-02T03:53:43.581Z,67.03
2019-05-02T03:56:14.159Z,68.30
2019-05-02T03:58:48.682Z,72.63
2019-05-02T04:01:12.389Z,64.57
2019-05-02T04:03:43.739Z,85.67
2019-05-02T04:06:20.270Z,69.40
2019-05-02T04:08:44.077Z,62.77
2019-05-02T04:11:15.629Z,81.23
2019-05-02T04:13:44.090Z,59.20
2019-05-02T04:16:15.341Z,61.23
2019-05-02T04:18:54.514Z,64.20
2019-05-02T04:21:13.438Z,79.23
2019-05-02T04:23:42.673Z,63.53
2019-05-02T04:26:13.141Z,60.43
2019-05-02T04:28:45.575Z,59.40
2019-05-02T04:31:11.348Z,60.37
2019-05-02T04:33:39.783Z,61.67
2019-05-02T04:36:15.862Z,73.30
2019-05-02T04:38:46.968Z,75.97
2019-05-02T04:41:09.373Z,62.83
2019-05-02T04:43:43.095Z,62.43
2019-05-02T04:46:09.377Z,63.00
2019-05-02T04:48:43.763Z,60.98
2019-05-02T04:51:14.219Z,61.63
2019-05-02T04:53:42.304Z,58.90
2019-05-02T04:56:10.571Z,53.38
2019-05-02T04:58:40.613Z,61.43
2019-05-02T05:01:10.073Z,56.60
2019-05-02T05:03:38.720Z,64.10
2019-05-02T05:06:11.912Z,58.57
2019-05-02T05:08:38.779Z,60.50
2019-05-02T05:11:07.894Z,60.77
2019-05-02T05:13:37.341Z,56.87
2019-05-02T05:16:08.136Z,62.03
2019-05-02T05:18:37.760Z,55.73
2019-05-02T05:21:10.249Z,54.17
2019-05-02T05:23:59.495Z,61.47
2019-05-02T05:26:27.527Z,55.20
2019-05-02T05:28:55.398Z,57.87
2019-05-02T05:31:25.725Z,54.70
2019-05-02T05:33:54.007Z,56.53
2019-05-02T05:36:29.308Z,55.03
2019-05-02T05:38:52.562Z,64.40
2019-05-02T05:41:23.171Z,58.45
2019-05-02T05:43:53.596Z,76.10
2019-05-02T05:46:21.431Z,58.30
2019-05-02T05:48:49.915Z,64.10
2019-05-02T05:51:20.627Z,65.90
2019-05-02T05:53:52.403Z,64.97
2019-05-02T05:56:18.696Z,63.75
2019-05-02T05:58:52.433Z,73.70
2019-05-02T06:01:20.453Z,69.33
2019-05-02T06:03:47.614Z,73.90
2019-05-02T06:06:22.368Z,71.28
2019-05-02T06:08:49.153Z,72.50
2019-05-02T06:11:20.132Z,77.10
2019-05-02T06:13:48.900Z,62.53
2019-05-02T06:16:16.810Z,82.20
2019-05-02T06:18:45.230Z,69.58
2019-05-02T06:21:13.752Z,63.27
2019-05-02T06:23:43.347Z,65.87
2019-05-02T06:26:13.600Z,58.53
2019-05-02T06:28:43.244Z,61.00
2019-05-02T06:31:11.723Z,67.93
2019-05-02T06:33:40.170Z,65.00
2019-05-02T06:36:09.000Z,62.30
2019-05-02T06:38:37.484Z,66.70
2019-05-02T06:41:05.956Z,63.77
2019-05-02T06:43:34.426Z,60.00
2019-05-02T06:46:15.395Z,58.63
2019-05-02T06:48:33.050Z,58.20
2019-05-02T06:51:01.444Z,57.77
2019-05-02T06:53:29.892Z,63.77
2019-05-02T06:55:58.303Z,59.20
2019-05-02T06:58:26.715Z,60.03
2019-05-02T07:00:58.392Z,62.47
2019-05-02T07:03:27.634Z,59.20
2019-05-02T07:05:58.642Z,59.33
2019-05-02T07:08:26.096Z,60.05
2019-05-02T07:10:55.844Z,58.53
2019-05-02T07:13:24.611Z,59.93
2019-05-02T07:16:10.473Z,62.60
2019-05-02T07:18:41.984Z,55.77
2019-05-02T07:21:12.169Z,58.50
2019-05-02T07:23:39.953Z,57.60
2019-05-02T07:26:09.375Z,59.83
2019-05-02T07:28:40.305Z,57.47
2019-05-02T07:31:11.988Z,59.40
2019-05-02T07:33:38.800Z,55.90
2019-05-02T07:36:07.352Z,58.30
2019-05-02T07:38:35.783Z,55.77
2019-05-02T07:41:04.456Z,59.80
2019-05-02T07:43:32.874Z,52.37
2019-05-02T07:46:01.450Z,53.43
2019-05-02T07:48:29.933Z,57.97
2019-05-02T07:50:58.312Z,53.40
2019-05-02T07:53:26.748Z,54.20
2019-05-02T07:55:55.169Z,54.17
2019-05-02T07:58:23.697Z,56.17
2019-05-02T08:00:52.135Z,56.73
2019-05-02T08:03:20.580Z,54.93
2019-05-02T08:05:49.065Z,54.07
2019-05-02T08:08:17.523Z,55.43
2019-05-02T08:10:46.031Z,54.17
2019-05-02T08:13:17.463Z,51.27
2019-05-02T08:15:50.633Z,54.33
2019-05-02T08:18:15.797Z,53.50
2019-05-02T08:20:44.278Z,49.83
2019-05-02T08:23:13.655Z,52.53
2019-05-02T08:25:45.374Z,47.20
2019-05-02T08:28:17.856Z,45.30
2019-05-02T08:30:48.119Z,46.87
2019-05-02T08:33:16.520Z,46.73
2019-05-02T08:35:44.960Z,46.25
2019-05-02T08:38:17.833Z,49.90
2019-05-02T08:40:47.931Z,46.03
2019-05-02T08:43:14.045Z,48.28
2019-05-02T08:45:42.510Z,48.67
2019-05-02T08:48:10.917Z,45.17
2019-05-02T08:50:40.130Z,41.42
2019-05-02T08:53:08.688Z,41.90
2019-05-02T08:55:41.315Z,41.40
2019-05-02T08:58:14.263Z,42.37
2019-05-02T09:00:39.481Z,38.80
2019-05-02T09:03:07.759Z,38.70
2019-05-02T09:05:42.851Z,41.70
2019-05-02T09:08:09.201Z,40.20
2019-05-02T09:10:37.038Z,37.70
2019-05-02T09:13:06.754Z,39.70
2019-05-02T09:15:39.811Z,39.50
2019-05-02T09:18:05.422Z,40.17
2019-05-02T09:20:33.869Z,39.60
2019-05-02T09:23:02.292Z,35.85
2019-05-02T09:25:32.390Z,36.43
2019-05-02T09:28:01.868Z,33.97
2019-05-02T09:30:32.557Z,33.83
2019-05-02T09:33:02.776Z,38.20
2019-05-02T09:35:32.720Z,35.90
2019-05-02T09:38:01.733Z,31.47
2019-05-02T09:40:31.869Z,34.27
2019-05-02T09:43:02.734Z,32.63
2019-05-02T09:45:36.076Z,31.87
2019-05-02T09:48:07.035Z,34.60
2019-05-02T09:50:34.459Z,37.93
2019-05-02T09:53:02.792Z,36.63
2019-05-02T09:55:31.846Z,37.07
2019-05-02T09:58:02.479Z,36.00
2019-05-02T10:00:36.202Z,37.00
2019-05-02T10:03:02.782Z,37.07
2019-05-02T10:05:32.213Z,37.50
2019-05-02T10:08:03.046Z,35.67
2019-05-02T10:10:32.432Z,38.73
2019-05-02T10:13:02.790Z,37.73
2019-05-02T10:15:32.684Z,38.50
2019-05-02T10:18:10.273Z,36.77
2019-05-02T10:20:36.245Z,41.53
2019-05-02T10:23:02.403Z,39.40
2019-05-02T10:25:38.657Z,41.70
2019-05-02T10:28:02.157Z,40.63
2019-05-02T10:30:35.526Z,38.50
2019-05-02T10:33:03.148Z,37.57
2019-05-02T10:35:43.344Z,39.20
2019-05-02T10:38:17.648Z,41.60
2019-05-02T10:40:42.542Z,40.10
2019-05-02T10:43:11.859Z,41.07
2019-05-02T10:45:42.541Z,42.03
2019-05-02T10:48:22.857Z,39.50
2019-05-02T10:50:45.674Z,42.50
2019-05-02T10:53:15.632Z,41.30
2019-05-02T10:55:44.974Z,39.80
2019-05-02T10:58:13.420Z,42.53
2019-05-02T11:00:45.243Z,42.97
2019-05-02T11:03:19.915Z,42.50
2019-05-02T11:05:57.914Z,41.08
2019-05-02T11:08:26.398Z,40.90
2019-05-02T11:10:54.876Z,40.03
2019-05-02T11:13:42.505Z,39.30
2019-05-02T11:16:21.564Z,39.67
2019-05-02T11:18:52.512Z,42.10
2019-05-02T11:21:22.898Z,39.93
2019-05-02T11:23:52.568Z,42.60
2019-05-02T11:26:24.930Z,41.27
2019-05-02T11:28:52.147Z,40.10
2019-05-02T11:31:21.894Z,42.33
2019-05-02T11:33:52.684Z,42.13
2019-05-02T11:36:22.366Z,39.00
2019-05-02T11:38:59.704Z,39.20
2019-05-02T11:41:22.407Z,39.27
2019-05-02T11:43:54.145Z,38.13
2019-05-02T11:46:22.125Z,38.93
2019-05-02T11:48:56.190Z,35.70
2019-05-02T11:51:22.655Z,38.57
2019-05-02T11:53:52.708Z,35.87
2019-05-02T11:56:22.257Z,36.00
2019-05-02T11:58:52.624Z,35.55
2019-05-02T12:01:34.575Z,36.40
2019-05-02T12:03:52.544Z,37.65
2019-05-02T12:06:22.572Z,37.23
2019-05-02T12:08:52.604Z,37.80
2019-05-02T12:11:22.944Z,36.80
2019-05-02T12:13:54.787Z,36.70
2019-05-02T12:16:22.957Z,38.43
2019-05-02T12:18:53.592Z,36.90
2019-05-02T12:21:22.886Z,33.40
2019-05-02T12:23:52.595Z,34.23
2019-05-02T12:26:22.078Z,31.33
2019-05-02T12:28:52.649Z,28.27
2019-05-02T12:31:26.546Z,29.02
2019-05-02T12:33:56.015Z,29.60
2019-05-02T12:36:24.514Z,28.83
2019-05-02T12:38:52.920Z,33.33
2019-05-02T12:41:24.557Z,31.48
2019-05-02T12:43:52.480Z,31.67
2019-05-02T12:46:22.136Z,30.48
2019-05-02T12:48:51.941Z,29.83
2019-05-02T12:51:22.527Z,32.00
2019-05-02T12:53:52.874Z,29.47
2019-05-02T12:56:22.979Z,32.83
2019-05-02T12:58:53.007Z,29.63
2019-05-02T13:01:21.951Z,29.90
2019-05-02T13:03:52.106Z,30.63
2019-05-02T13:06:21.943Z,28.90
2019-05-02T13:08:52.411Z,32.53
2019-05-02T13:11:25.743Z,29.80
2019-05-02T13:13:54.239Z,27.80
2019-05-02T13:16:22.785Z,27.50
2019-05-02T13:18:51.907Z,28.37
2019-05-02T13:21:24.986Z,29.77
2019-05-02T13:23:55.050Z,27.93
2019-05-02T13:26:27.114Z,27.27
2019-05-02T13:28:53.740Z,28.00
2019-05-02T13:31:32.005Z,29.30
2019-05-02T13:34:15.031Z,29.00
2019-05-02T13:36:47.404Z,29.07
2019-05-02T13:39:34.246Z,26.53
2019-05-02T13:42:02.991Z,25.53
2019-05-02T13:44:33.043Z,25.20
2019-05-02T13:47:02.755Z,23.23
2019-05-02T13:49:32.409Z,24.15
2019-05-02T13:52:02.473Z,25.32
2019-05-02T13:54:32.955Z,23.42
2019-05-02T13:57:03.128Z,24.33
2019-05-02T13:59:33.739Z,21.47
2019-05-02T14:02:02.948Z,19.77
2019-05-02T14:04:32.684Z,22.03
2019-05-02T14:07:02.973Z,21.10
2019-05-02T14:09:33.180Z,22.35
2019-05-02T14:12:18.510Z,21.60
2019-05-02T14:14:46.934Z,20.70
2019-05-02T14:17:15.397Z,21.13
2019-05-02T14:19:43.876Z,21.93
2019-05-02T14:22:12.939Z,18.30
2019-05-02T14:24:42.201Z,19.97
2019-05-02T14:27:12.807Z,22.10
2019-05-02T14:29:42.364Z,21.40
2019-05-02T14:32:21.306Z,21.73
2019-05-02T14:34:54.686Z,20.77
2019-05-02T14:37:23.089Z,22.73
2019-05-02T14:39:54.131Z,21.43
2019-05-02T14:42:26.197Z,20.70
2019-05-02T14:45:05.536Z,20.10
2019-05-02T14:47:22.931Z,20.57
2019-05-02T14:49:52.202Z,20.65
2019-05-02T14:52:22.135Z,21.87
2019-05-02T14:54:52.520Z,23.00
2019-05-02T14:57:22.957Z,21.03
2019-05-02T14:59:59.272Z,23.07
2019-05-02T15:02:23.356Z,20.47
2019-05-02T15:04:52.304Z,21.20
2019-05-02T15:07:22.926Z,20.20
2019-05-02T15:09:52.517Z,20.30
2019-05-02T15:12:22.188Z,18.92
2019-05-02T15:14:57.486Z,18.57
2019-05-02T15:17:22.669Z,18.80
2019-05-02T15:19:52.724Z,19.83
2019-05-02T15:22:22.784Z,20.72
2019-05-02T15:24:52.958Z,20.20
2019-05-02T15:27:22.228Z,19.90
2019-05-02T15:29:53.946Z,21.23
2019-05-02T15:32:44.996Z,22.43
2019-05-02T15:35:12.811Z,22.07
2019-05-02T15:37:41.740Z,24.17
2019-05-02T15:42:42.321Z,25.93
2019-05-02T15:45:12.500Z,25.00
2019-05-02T15:47:41.562Z,25.50
2019-05-02T15:50:14.766Z,27.93
2019-05-02T15:52:43.748Z,26.13
2019-05-02T15:55:12.331Z,27.00
2019-05-02T15:57:43.648Z,27.70
2019-05-02T16:00:17.215Z,25.60
2019-05-02T16:02:44.888Z,25.27
2019-05-02T16:05:13.926Z,26.30
2019-05-02T16:07:45.516Z,28.13
2019-05-02T16:10:13.452Z,28.93
2019-05-02T16:12:43.587Z,28.27
2019-05-02T16:15:18.167Z,26.03
2019-05-02T16:17:42.411Z,27.57
2019-05-02T16:20:13.536Z,26.70
2019-05-02T16:22:46.287Z,28.47
2019-05-02T16:25:13.425Z,30.77
2019-05-02T16:27:48.584Z,31.27
2019-05-02T16:30:22.396Z,30.53
2019-05-02T16:32:52.557Z,30.07
2019-05-02T16:35:22.634Z,35.03
2019-05-02T16:37:52.249Z,46.90
2019-05-02T16:40:29.481Z,64.87
2019-05-02T16:42:52.018Z,40.77
2019-05-02T16:45:22.185Z,36.35
2019-05-02T16:47:58.795Z,39.60
2019-05-02T16:50:22.865Z,35.43
2019-05-02T16:52:53.088Z,37.17
2019-05-02T16:55:26.610Z,40.75
2019-05-02T16:57:56.628Z,39.17
2019-05-02T17:00:25.188Z,43.17
2019-05-02T17:02:53.672Z,46.57
2019-05-02T17:05:22.255Z,45.70
2019-05-02T17:08:10.591Z,46.37
2019-05-02T17:10:39.060Z,46.23
2019-05-02T17:13:07.485Z,45.10
2019-05-02T17:15:36.777Z,46.20
2019-05-02T17:18:12.848Z,48.07
2019-05-02T17:20:36.905Z,49.37
2019-05-02T17:23:07.560Z,48.93
2019-05-02T17:25:35.776Z,46.43
2019-05-02T17:28:10.001Z,46.13
2019-05-02T17:30:38.916Z,53.97
2019-05-02T17:33:07.330Z,45.47
2019-05-02T17:35:35.613Z,49.50
2019-05-02T17:38:04.209Z,49.80
2019-05-02T17:40:32.636Z,48.63
2019-05-02T17:43:02.863Z,47.83
2019-05-02T17:45:33.593Z,40.10
2019-05-02T17:48:01.451Z,40.80
2019-05-02T17:50:34.423Z,35.30
2019-05-02T17:53:04.711Z,36.37
2019-05-02T17:55:40.315Z,37.77
2019-05-02T17:58:12.144Z,34.43
2019-05-02T18:00:36.202Z,37.73
2019-05-02T18:03:05.223Z,40.80
2019-05-02T18:05:35.907Z,41.48
2019-05-02T18:08:05.980Z,38.60
2019-05-02T18:10:35.730Z,39.50
2019-05-02T18:13:04.561Z,42.27
2019-05-02T18:15:34.700Z,39.13
2019-05-02T18:18:06.820Z,37.80
2019-05-02T18:20:37.286Z,36.90
2019-05-02T18:23:05.954Z,38.47
2019-05-02T18:25:34.079Z,37.30
2019-05-02T18:28:02.664Z,37.23
2019-05-02T18:30:31.137Z,36.80
2019-05-02T18:33:05.277Z,35.80
2019-05-02T18:35:29.890Z,35.50
2019-05-02T18:37:58.332Z,38.70
2019-05-02T18:40:29.452Z,37.73
2019-05-02T18:43:02.029Z,39.03
2019-05-02T18:45:28.798Z,37.03
2019-05-02T18:48:02.295Z,38.50
2019-05-02T18:50:36.839Z,41.77
2019-05-02T18:53:04.588Z,38.80
2019-05-02T18:55:33.785Z,39.75
2019-05-02T18:58:05.363Z,40.70
2019-05-02T19:00:38.299Z,36.87
2019-05-02T19:03:07.470Z,43.40
2019-05-02T19:05:33.643Z,44.20
2019-05-02T19:08:02.626Z,44.13
2019-05-02T19:10:32.341Z,45.70
2019-05-02T19:13:04.433Z,43.60
2019-05-02T19:15:34.056Z,42.77
2019-05-02T19:18:02.614Z,43.45
2019-05-02T19:20:37.180Z,42.43
2019-05-02T19:23:05.691Z,40.10
2019-05-02T19:25:34.133Z,40.90
2019-05-02T19:28:13.250Z,43.37
2019-05-02T19:30:42.621Z,40.20
2019-05-02T19:33:12.140Z,38.00
2019-05-02T19:35:45.267Z,39.37
2019-05-02T19:38:11.871Z,40.07
2019-05-02T19:40:42.614Z,39.53
2019-05-02T19:43:14.561Z,42.50
2019-05-02T19:45:41.101Z,42.63
2019-05-02T19:48:09.886Z,40.92
2019-05-02T19:50:43.763Z,44.07
2019-05-02T19:53:17.742Z,44.50
2019-05-02T19:55:42.949Z,44.97
2019-05-02T19:58:11.815Z,45.30
2019-05-02T20:00:42.263Z,47.47
2019-05-02T20:03:13.716Z,46.07
2019-05-02T20:05:42.737Z,51.77
2019-05-02T20:08:14.641Z,49.43
2019-05-02T20:10:42.345Z,49.00
2019-05-02T20:13:11.997Z,49.00
2019-05-02T20:16:04.428Z,48.10
2019-05-02T20:18:34.975Z,59.05
2019-05-02T20:21:02.588Z,55.70
2019-05-02T20:23:35.527Z,50.40
2019-05-02T20:26:01.534Z,48.47
2019-05-02T20:28:31.757Z,49.97
2019-05-02T20:31:01.774Z,47.30
2019-05-02T20:33:30.181Z,46.30
2019-05-02T20:35:59.072Z,45.13
2019-05-02T20:38:27.507Z,47.10
2019-05-02T20:40:56.158Z,45.52
2019-05-02T20:43:24.633Z,43.75
2019-05-02T20:45:53.183Z,48.10
2019-05-02T20:48:22.740Z,50.43
2019-05-02T20:50:52.048Z,45.40
2019-05-02T20:53:28.748Z,48.20
2019-05-02T20:55:52.410Z,49.17
2019-05-02T20:58:22.010Z,44.30
2019-05-02T21:01:05.123Z,45.23
2019-05-02T21:03:20.977Z,46.83
2019-05-02T21:05:53.937Z,46.67
2019-05-02T21:08:29.700Z,45.30
2019-05-02T21:11:02.462Z,46.43
2019-05-02T21:13:32.633Z,47.80
2019-05-02T21:16:01.808Z,47.90
2019-05-02T21:18:30.380Z,47.67
2019-05-02T21:20:58.857Z,48.97
2019-05-02T21:23:27.408Z,47.80
2019-05-02T21:25:55.864Z,46.17
2019-05-02T21:28:24.388Z,46.30
2019-05-02T21:30:52.890Z,48.08
2019-05-02T21:33:31.990Z,47.83
2019-05-02T21:36:01.035Z,47.73
2019-05-02T21:38:29.435Z,43.70
2019-05-02T21:40:58.213Z,39.20
2019-05-02T21:43:26.702Z,38.90
2019-05-02T21:45:55.223Z,41.90
2019-05-02T21:48:24.924Z,39.35
2019-05-02T21:50:54.960Z,42.20
2019-05-02T21:53:32.605Z,42.40
2019-05-02T21:56:02.861Z,41.53
2019-05-02T21:58:32.324Z,40.17
2019-05-02T22:01:05.257Z,41.87
2019-05-02T22:03:33.881Z,39.90
2019-05-02T22:06:02.403Z,38.00
2019-05-02T22:08:32.295Z,37.40
2019-05-02T22:11:00.795Z,37.10
2019-05-02T22:13:29.245Z,34.40
2019-05-02T22:15:57.666Z,32.33
2019-05-02T22:18:26.062Z,29.47
2019-05-02T22:20:54.446Z,26.50
2019-05-02T22:23:22.923Z,24.70
2019-05-02T22:25:52.637Z,25.53
2019-05-02T22:28:22.112Z,25.23
2019-05-02T22:30:54.364Z,22.90
2019-05-02T22:33:22.191Z,23.03
2019-05-02T22:35:52.427Z,19.93
2019-05-02T22:38:24.795Z,20.20
2019-05-02T22:40:54.818Z,23.87
2019-05-02T22:43:23.214Z,20.77
2019-05-02T22:45:51.650Z,22.30
2019-05-02T22:48:20.098Z,18.80
2019-05-02T22:50:48.582Z,19.80
2019-05-02T22:53:17.033Z,20.80
2019-05-02T22:55:45.473Z,21.17
2019-05-02T22:58:13.924Z,23.23
2019-05-02T23:00:42.349Z,23.53
2019-05-02T23:03:12.496Z,24.20
2019-05-02T23:05:42.127Z,24.40
2019-05-02T23:08:12.457Z,25.90
2019-05-02T23:10:41.621Z,31.90
2019-05-02T23:13:10.050Z,29.57
2019-05-02T23:15:38.472Z,29.90
2019-05-02T23:18:06.913Z,31.27
2019-05-02T23:20:35.355Z,29.60
2019-05-02T23:23:03.858Z,31.97
2019-05-02T23:25:51.831Z,29.27
2019-05-02T23:28:22.192Z,28.23
2019-05-02T23:30:51.998Z,29.93
2019-05-02T23:33:23.413Z,26.03
2019-05-02T23:35:52.117Z,29.90
2019-05-02T23:38:21.749Z,29.67
2019-05-02T23:40:50.261Z,29.80
2019-05-02T23:43:18.677Z,29.73
2019-05-02T23:45:47.107Z,30.67
2019-05-02T23:48:15.548Z,27.48
2019-05-02T23:50:43.990Z,29.60
2019-05-02T23:53:12.869Z,28.40
2019-05-02T23:55:42.607Z,30.87
2019-05-02T23:58:12.117Z,31.93
